createdAt,value
2018-07-09T00:01:18.706Z,16.23
2018-07-09T00:03:47.354Z,16.20
2018-07-09T00:06:16.035Z,16.19
2018-07-09T00:08:44.659Z,16.15
2018-07-09T00:11:13.207Z,16.14
2018-07-09T00:13:41.754Z,16.12
2018-07-09T00:16:10.287Z,16.10
2018-07-09T00:18:38.889Z,16.09
2018-07-09T00:21:07.515Z,16.09
2018-07-09T00:23:36.095Z,16.08
2018-07-09T00:26:05.501Z,16.13
2018-07-09T00:28:49.092Z,16.15
2018-07-09T00:31:17.847Z,16.20
2018-07-09T00:33:46.481Z,16.22
2018-07-09T00:36:15.098Z,16.26
2018-07-09T00:38:43.732Z,16.30
2018-07-09T00:41:12.416Z,16.33
2018-07-09T00:43:41.136Z,16.32
2018-07-09T00:46:09.793Z,16.30
2018-07-09T00:48:38.370Z,16.30
2018-07-09T00:51:07.154Z,16.30
2018-07-09T00:53:35.587Z,16.33
2018-07-09T00:56:04.424Z,16.34
2018-07-09T00:58:33.031Z,16.36
2018-07-09T01:01:01.899Z,16.36
2018-07-09T01:03:30.406Z,16.28
2018-07-09T01:05:59.009Z,16.32
2018-07-09T01:08:28.112Z,16.33
2018-07-09T01:11:07.872Z,16.36
2018-07-09T01:13:43.930Z,16.36
2018-07-09T01:16:12.911Z,16.39
2018-07-09T01:18:42.811Z,16.41
2018-07-09T01:21:13.851Z,16.45
2018-07-09T01:23:42.390Z,16.46
2018-07-09T01:26:10.973Z,16.49
2018-07-09T01:28:41.155Z,16.52
2018-07-09T01:31:09.777Z,16.56
2018-07-09T01:33:38.466Z,16.59
2018-07-09T01:36:07.354Z,16.61
2018-07-09T01:38:35.977Z,16.62
2018-07-09T01:41:04.722Z,16.61
2018-07-09T01:43:33.305Z,16.64
2018-07-09T01:46:01.991Z,16.65
2018-07-09T01:48:30.519Z,16.68
2018-07-09T01:50:59.619Z,16.70
2018-07-09T01:53:28.149Z,16.75
2018-07-09T01:55:56.733Z,16.78
2018-07-09T01:58:25.239Z,16.80
2018-07-09T02:00:54.008Z,16.82
2018-07-09T02:03:22.692Z,16.85
2018-07-09T02:05:52.047Z,16.87
2018-07-09T02:08:20.610Z,16.89
2018-07-09T02:10:49.171Z,16.90
2018-07-09T02:13:17.839Z,16.90
2018-07-09T02:15:46.419Z,16.90
2018-07-09T02:18:15.104Z,16.87
2018-07-09T02:20:43.784Z,16.82
2018-07-09T02:23:12.372Z,16.75
2018-07-09T02:25:40.930Z,16.73
2018-07-09T02:28:09.538Z,16.69
2018-07-09T02:30:38.263Z,16.65
2018-07-09T02:33:07.023Z,16.64
2018-07-09T02:35:35.542Z,16.65
2018-07-09T02:38:04.103Z,16.65
2018-07-09T02:40:33.199Z,16.61
2018-07-09T02:43:01.779Z,16.69
2018-07-09T02:45:30.440Z,16.69
2018-07-09T02:47:59.267Z,16.68
2018-07-09T02:50:29.067Z,16.66
2018-07-09T02:52:58.132Z,16.64
2018-07-09T02:55:26.795Z,16.65
2018-07-09T02:57:55.500Z,16.64
2018-07-09T03:00:24.105Z,16.65
2018-07-09T03:02:52.770Z,16.65
2018-07-09T03:05:21.459Z,16.69
2018-07-09T03:07:50.093Z,16.72
2018-07-09T03:10:18.726Z,16.76
2018-07-09T03:12:47.237Z,16.79
2018-07-09T03:15:15.899Z,16.83
2018-07-09T03:17:44.586Z,16.85
2018-07-09T03:20:13.208Z,16.87
2018-07-09T03:22:41.846Z,16.86
2018-07-09T03:25:10.531Z,16.89
2018-07-09T03:27:39.112Z,16.91
2018-07-09T03:30:08.062Z,16.95
2018-07-09T03:32:36.631Z,17.01
2018-07-09T03:35:05.215Z,17.05
2018-07-09T03:37:33.843Z,17.08
2018-07-09T03:40:02.436Z,17.15
2018-07-09T03:42:31.120Z,17.19
2018-07-09T03:44:59.742Z,17.26
2018-07-09T03:47:28.316Z,17.30
2018-07-09T03:49:56.971Z,17.32
2018-07-09T03:52:25.861Z,17.33
2018-07-09T03:54:54.547Z,17.36
2018-07-09T03:57:23.152Z,17.35
2018-07-09T03:59:51.646Z,17.35
2018-07-09T04:02:20.353Z,17.36
2018-07-09T04:04:48.882Z,17.38
2018-07-09T04:07:17.408Z,17.41
2018-07-09T04:09:45.941Z,17.44
2018-07-09T04:12:14.524Z,17.42
2018-07-09T04:14:43.126Z,17.54
2018-07-09T04:17:11.706Z,17.62
2018-07-09T04:19:40.376Z,17.70
2018-07-09T04:22:08.962Z,17.79
2018-07-09T04:24:37.601Z,17.88
2018-07-09T04:27:06.356Z,18.00
2018-07-09T04:29:34.964Z,18.12
2018-07-09T04:32:03.539Z,18.19
2018-07-09T04:34:32.076Z,18.29
2018-07-09T04:37:00.659Z,18.40
2018-07-09T04:39:29.186Z,18.58
2018-07-09T04:41:57.932Z,18.75
2018-07-09T04:44:27.127Z,18.89
2018-07-09T04:46:55.815Z,18.96
2018-07-09T04:49:24.457Z,19.05
2018-07-09T04:51:53.079Z,19.15
2018-07-09T04:54:21.702Z,19.25
2018-07-09T04:56:50.283Z,19.35
2018-07-09T04:59:18.931Z,19.49
2018-07-09T05:01:47.533Z,19.61
2018-07-09T05:04:16.147Z,19.77
2018-07-09T05:06:44.868Z,19.80
2018-07-09T05:09:13.466Z,19.83
2018-07-09T05:11:42.051Z,19.85
2018-07-09T05:14:10.734Z,19.93
2018-07-09T05:16:40.035Z,19.99
2018-07-09T05:19:08.556Z,20.03
2018-07-09T05:21:37.200Z,20.09
2018-07-09T05:24:05.711Z,20.12
2018-07-09T05:26:35.082Z,20.16
2018-07-09T05:29:03.665Z,20.22
2018-07-09T05:31:32.276Z,20.33
2018-07-09T05:34:00.933Z,20.38
2018-07-09T05:36:29.618Z,20.36
2018-07-09T05:38:58.348Z,20.41
2018-07-09T05:41:26.995Z,20.45
2018-07-09T05:43:55.674Z,20.47
2018-07-09T05:46:24.243Z,20.46
2018-07-09T05:48:52.943Z,20.53
2018-07-09T05:51:21.526Z,20.58
2018-07-09T05:53:50.223Z,20.60
2018-07-09T05:56:19.237Z,20.65
2018-07-09T05:58:48.001Z,20.61
2018-07-09T06:01:16.677Z,20.58
2018-07-09T06:03:45.672Z,20.53
2018-07-09T06:06:14.768Z,20.57
2018-07-09T06:08:43.323Z,20.61
2018-07-09T06:11:11.968Z,20.58
2018-07-09T06:13:41.208Z,20.65
2018-07-09T06:16:09.769Z,20.73
2018-07-09T06:18:38.497Z,20.79
2018-07-09T06:21:07.289Z,20.87
2018-07-09T06:23:35.906Z,20.97
2018-07-09T06:26:04.657Z,21.00
2018-07-09T06:28:33.287Z,21.09
2018-07-09T06:31:01.787Z,21.27
2018-07-09T06:33:30.305Z,21.41
2018-07-09T06:35:58.987Z,21.46
2018-07-09T06:38:27.632Z,21.42
2018-07-09T06:40:56.254Z,21.55
2018-07-09T06:43:24.945Z,21.67
2018-07-09T06:45:53.503Z,21.87
2018-07-09T06:48:22.137Z,21.96
2018-07-09T06:50:50.647Z,21.91
2018-07-09T06:53:19.227Z,22.07
2018-07-09T06:55:47.834Z,22.14
2018-07-09T06:58:16.539Z,22.13
2018-07-09T07:00:45.676Z,22.07
2018-07-09T07:03:14.299Z,22.00
2018-07-09T07:05:43.005Z,21.93
2018-07-09T07:08:11.631Z,21.86
2018-07-09T07:10:40.332Z,21.89
2018-07-09T07:13:08.888Z,21.95
2018-07-09T07:15:37.758Z,22.05
2018-07-09T07:18:06.483Z,22.21
2018-07-09T07:20:35.266Z,22.29
2018-07-09T07:23:04.106Z,22.57
2018-07-09T07:25:32.898Z,22.60
2018-07-09T07:28:01.594Z,22.58
2018-07-09T07:30:30.785Z,22.48
2018-07-09T07:32:59.655Z,22.32
2018-07-09T07:35:28.264Z,22.20
2018-07-09T07:38:11.646Z,22.16
2018-07-09T07:40:40.287Z,22.26
2018-07-09T07:43:08.960Z,22.37
2018-07-09T07:45:38.224Z,22.49
2018-07-09T07:48:06.982Z,22.62
2018-07-09T07:50:35.705Z,22.63
2018-07-09T07:53:04.239Z,22.52
2018-07-09T07:55:32.892Z,22.28
2018-07-09T07:58:01.577Z,22.17
2018-07-09T08:00:30.391Z,22.34
2018-07-09T08:02:59.049Z,22.47
2018-07-09T08:05:27.734Z,22.51
2018-07-09T08:07:57.071Z,22.62
2018-07-09T08:10:25.684Z,22.63
2018-07-09T08:13:13.741Z,22.38
2018-07-09T08:15:23.006Z,22.32
2018-07-09T08:17:51.675Z,22.13
2018-07-09T08:20:20.356Z,22.15
2018-07-09T08:22:49.560Z,22.11
2018-07-09T08:25:18.482Z,22.11
2018-07-09T08:27:47.132Z,22.14
2018-07-09T08:30:15.744Z,22.19
2018-07-09T08:32:44.442Z,22.42
2018-07-09T08:35:13.027Z,22.44
2018-07-09T08:37:41.666Z,22.47
2018-07-09T08:40:10.310Z,22.53
2018-07-09T08:42:38.934Z,22.57
2018-07-09T08:45:07.619Z,22.64
2018-07-09T08:47:36.305Z,22.60
2018-07-09T08:50:04.888Z,22.59
2018-07-09T08:52:34.666Z,22.35
2018-07-09T08:55:03.426Z,22.36
2018-07-09T08:57:32.070Z,22.30
2018-07-09T09:00:00.655Z,22.36
2018-07-09T09:02:29.183Z,22.54
2018-07-09T09:04:57.867Z,22.70
2018-07-09T09:07:27.084Z,22.78
2018-07-09T09:09:55.645Z,22.78
2018-07-09T09:12:24.776Z,22.93
2018-07-09T09:14:54.363Z,22.92
2018-07-09T09:17:23.088Z,22.88
2018-07-09T09:19:51.719Z,22.97
2018-07-09T09:22:20.261Z,23.07
2018-07-09T09:24:48.939Z,23.03
2018-07-09T09:27:17.571Z,22.97
2018-07-09T09:29:46.207Z,23.10
2018-07-09T09:32:14.723Z,23.02
2018-07-09T09:34:43.230Z,23.10
2018-07-09T09:37:13.342Z,23.09
2018-07-09T09:39:41.973Z,23.31
2018-07-09T09:42:10.657Z,23.47
2018-07-09T09:44:39.240Z,23.62
2018-07-09T09:47:08.028Z,23.60
2018-07-09T09:49:37.226Z,23.62
2018-07-09T09:52:06.383Z,23.50
2018-07-09T09:54:34.947Z,23.47
2018-07-09T09:57:03.590Z,23.58
2018-07-09T09:59:32.337Z,23.64
2018-07-09T10:02:00.980Z,23.74
2018-07-09T10:04:29.962Z,23.88
2018-07-09T10:06:58.607Z,23.94
2018-07-09T10:09:27.119Z,23.79
2018-07-09T10:11:55.646Z,23.73
2018-07-09T10:14:24.318Z,23.69
2018-07-09T10:16:55.355Z,23.59
2018-07-09T10:19:24.372Z,23.35
2018-07-09T10:21:53.519Z,23.32
2018-07-09T10:24:22.202Z,23.31
2018-07-09T10:26:51.194Z,23.31
2018-07-09T10:29:19.980Z,23.37
2018-07-09T10:31:48.644Z,23.46
2018-07-09T10:34:17.248Z,23.39
2018-07-09T10:36:45.795Z,23.35
2018-07-09T10:39:15.232Z,23.38
2018-07-09T10:41:44.449Z,23.45
2018-07-09T10:44:13.219Z,23.80
2018-07-09T10:46:42.251Z,23.93
2018-07-09T10:49:11.619Z,24.11
2018-07-09T10:51:40.291Z,24.24
2018-07-09T10:54:10.218Z,24.35
2018-07-09T10:56:38.999Z,24.24
2018-07-09T10:59:07.655Z,24.31
2018-07-09T11:01:37.087Z,24.29
2018-07-09T11:04:05.827Z,24.27
2018-07-09T11:06:35.222Z,24.05
2018-07-09T11:09:05.814Z,24.18
2018-07-09T11:11:34.478Z,24.25
2018-07-09T11:14:04.219Z,24.05
2018-07-09T11:16:33.609Z,24.11
2018-07-09T11:19:02.732Z,24.14
2018-07-09T11:21:31.519Z,24.17
2018-07-09T11:24:00.783Z,24.07
2018-07-09T11:26:29.303Z,23.86
2018-07-09T11:28:58.328Z,23.93
2018-07-09T11:31:27.587Z,23.94
2018-07-09T11:33:56.179Z,24.02
2018-07-09T11:36:24.867Z,24.05
2018-07-09T11:38:53.967Z,24.20
2018-07-09T11:41:22.550Z,24.35
2018-07-09T11:43:53.215Z,24.20
2018-07-09T11:46:21.821Z,24.29
2018-07-09T11:48:50.505Z,24.45
2018-07-09T11:51:19.192Z,24.64
2018-07-09T11:53:48.059Z,24.63
2018-07-09T11:56:17.149Z,24.52
2018-07-09T11:58:47.194Z,24.57
2018-07-09T12:01:15.711Z,24.40
2018-07-09T12:03:44.357Z,24.29
2018-07-09T12:06:13.073Z,24.35
2018-07-09T12:08:41.776Z,24.34
2018-07-09T12:11:11.439Z,24.39
2018-07-09T12:13:40.228Z,24.34
2018-07-09T12:16:09.683Z,24.32
2018-07-09T12:18:39.003Z,24.32
2018-07-09T12:21:08.533Z,24.46
2018-07-09T12:23:37.220Z,24.23
2018-07-09T12:26:06.405Z,24.25
2018-07-09T12:28:34.947Z,24.11
2018-07-09T12:31:04.300Z,24.12
2018-07-09T12:33:33.502Z,24.25
2018-07-09T12:36:03.852Z,24.29
2018-07-09T12:38:33.167Z,24.26
2018-07-09T12:41:01.806Z,24.36
2018-07-09T12:43:31.209Z,24.49
2018-07-09T12:46:01.228Z,24.60
2018-07-09T12:48:29.877Z,24.51
2018-07-09T12:50:58.451Z,24.47
2018-07-09T12:53:27.638Z,24.60
2018-07-09T12:55:56.681Z,24.48
2018-07-09T12:58:27.221Z,24.32
2018-07-09T13:00:55.947Z,24.26
2018-07-09T13:03:24.480Z,24.31
2018-07-09T13:05:53.043Z,24.17
2018-07-09T13:08:21.687Z,24.17
2018-07-09T13:10:50.328Z,24.22
2018-07-09T13:13:18.937Z,24.20
2018-07-09T13:15:47.551Z,24.31
2018-07-09T13:18:16.796Z,24.52
2018-07-09T13:20:45.380Z,24.74
2018-07-09T13:23:14.274Z,24.88
2018-07-09T13:25:42.952Z,24.73
2018-07-09T13:28:11.534Z,24.82
2018-07-09T13:30:40.167Z,24.87
2018-07-09T13:33:08.906Z,24.75
2018-07-09T13:35:38.355Z,24.67
2018-07-09T13:38:07.019Z,24.70
2018-07-09T13:40:35.784Z,24.98
2018-07-09T13:43:04.488Z,25.12
2018-07-09T13:45:33.407Z,25.17
2018-07-09T13:48:02.046Z,25.12
2018-07-09T13:50:30.796Z,25.07
2018-07-09T13:52:59.678Z,25.23
2018-07-09T13:55:28.467Z,25.36
2018-07-09T13:57:57.252Z,25.24
2018-07-09T14:00:26.596Z,25.17
2018-07-09T14:02:55.183Z,24.92
2018-07-09T14:05:25.053Z,24.97
2018-07-09T14:07:57.335Z,24.98
2018-07-09T14:10:31.161Z,24.84
2018-07-09T14:13:00.066Z,24.68
2018-07-09T14:15:28.874Z,24.57
2018-07-09T14:18:02.547Z,24.70
2018-07-09T14:20:58.778Z,24.60
2018-07-09T14:23:39.651Z,24.76
2018-07-09T14:26:08.232Z,24.99
2018-07-09T14:28:36.727Z,25.25
2018-07-09T14:31:05.347Z,25.36
2018-07-09T14:33:48.218Z,25.37
2018-07-09T14:36:16.829Z,25.40
2018-07-09T14:38:45.483Z,25.50
2018-07-09T14:41:14.161Z,25.66
2018-07-09T14:43:42.667Z,25.56
2018-07-09T14:46:12.358Z,25.65
2018-07-09T14:48:40.859Z,25.78
2018-07-09T14:51:09.523Z,25.69
2018-07-09T14:53:38.107Z,25.77
2018-07-09T14:56:06.744Z,25.86
2018-07-09T14:58:35.374Z,25.65
2018-07-09T15:01:03.999Z,25.55
2018-07-09T15:03:32.746Z,25.85
2018-07-09T15:06:01.277Z,25.95
2018-07-09T15:08:29.911Z,26.11
2018-07-09T15:10:58.495Z,26.20
2018-07-09T15:13:27.002Z,26.18
2018-07-09T15:15:55.667Z,26.19
2018-07-09T15:18:24.241Z,25.80
2018-07-09T15:20:52.884Z,25.64
2018-07-09T15:23:21.555Z,25.62
2018-07-09T15:25:50.297Z,25.31
2018-07-09T15:28:18.881Z,25.17
2018-07-09T15:30:48.897Z,25.06
2018-07-09T15:33:17.407Z,24.84
2018-07-09T15:35:46.003Z,24.98
2018-07-09T15:38:14.646Z,24.89
2018-07-09T15:40:43.271Z,24.78
2018-07-09T15:43:12.007Z,24.90
2018-07-09T15:45:40.519Z,24.76
2018-07-09T15:48:09.183Z,24.66
2018-07-09T15:50:37.824Z,24.78
2018-07-09T15:53:06.694Z,24.79
2018-07-09T15:55:35.346Z,24.92
2018-07-09T15:58:04.460Z,24.96
2018-07-09T16:00:33.141Z,25.04
2018-07-09T16:03:02.031Z,25.00
2018-07-09T16:05:30.802Z,24.97
2018-07-09T16:07:59.485Z,24.80
2018-07-09T16:10:28.104Z,24.89
2018-07-09T16:12:56.681Z,24.99
2018-07-09T16:15:25.336Z,25.08
2018-07-09T16:17:53.918Z,24.99
2018-07-09T16:20:22.523Z,24.92
2018-07-09T16:22:51.127Z,24.93
2018-07-09T16:25:19.619Z,24.78
2018-07-09T16:27:48.461Z,24.58
2018-07-09T16:30:17.140Z,24.27
2018-07-09T16:32:45.825Z,24.12
2018-07-09T16:35:14.458Z,24.14
2018-07-09T16:37:43.075Z,24.23
2018-07-09T16:40:11.595Z,24.16
2018-07-09T16:42:40.259Z,24.04
2018-07-09T16:45:08.945Z,24.13
2018-07-09T16:47:37.589Z,24.05
2018-07-09T16:50:06.148Z,24.05
2018-07-09T16:52:34.804Z,24.04
2018-07-09T16:55:03.497Z,24.02
2018-07-09T16:57:32.268Z,23.98
2018-07-09T17:00:00.774Z,23.83
2018-07-09T17:02:29.431Z,23.52
2018-07-09T17:04:58.762Z,23.38
2018-07-09T17:07:27.970Z,23.29
2018-07-09T17:09:56.563Z,23.16
2018-07-09T17:12:25.157Z,22.98
2018-07-09T17:14:53.675Z,22.96
2018-07-09T17:17:22.496Z,22.91
2018-07-09T17:19:51.080Z,22.83
2018-07-09T17:22:20.161Z,22.82
2018-07-09T17:24:48.860Z,22.63
2018-07-09T17:27:17.548Z,22.68
2018-07-09T17:29:46.031Z,22.62
2018-07-09T17:32:14.682Z,22.56
2018-07-09T17:34:43.388Z,22.49
2018-07-09T17:37:11.999Z,22.41
2018-07-09T17:39:40.840Z,22.32
2018-07-09T17:42:09.382Z,22.30
2018-07-09T17:44:37.959Z,22.25
2018-07-09T17:47:06.531Z,22.18
2018-07-09T17:49:35.171Z,22.13
2018-07-09T17:52:03.695Z,22.08
2018-07-09T17:54:33.361Z,22.01
2018-07-09T17:57:01.947Z,21.84
2018-07-09T17:59:30.527Z,21.62
2018-07-09T18:01:59.213Z,21.49
2018-07-09T18:04:27.899Z,21.23
2018-07-09T18:06:57.100Z,20.91
2018-07-09T18:09:25.623Z,20.60
2018-07-09T18:11:54.263Z,20.20
2018-07-09T18:14:22.949Z,19.83
2018-07-09T18:16:51.584Z,19.47
2018-07-09T18:19:21.445Z,19.10
2018-07-09T18:21:50.045Z,18.86
2018-07-09T18:24:18.611Z,18.73
2018-07-09T18:26:47.165Z,18.57
2018-07-09T18:29:16.188Z,18.41
2018-07-09T18:31:44.870Z,18.25
2018-07-09T18:34:13.452Z,18.21
2018-07-09T18:36:42.650Z,18.15
2018-07-09T18:39:11.952Z,18.10
2018-07-09T18:41:40.637Z,18.01
2018-07-09T18:44:09.243Z,17.98
2018-07-09T18:46:37.979Z,17.90
2018-07-09T18:49:06.982Z,17.92
2018-07-09T18:51:36.200Z,17.90
2018-07-09T18:54:04.820Z,17.93
2018-07-09T18:56:33.730Z,17.93
2018-07-09T18:59:03.381Z,17.93
2018-07-09T19:01:32.115Z,17.90
2018-07-09T19:04:00.651Z,17.89
2018-07-09T19:07:10.603Z,17.79
2018-07-09T19:09:40.005Z,17.81
2018-07-09T19:12:09.946Z,17.83
2018-07-09T19:14:41.759Z,17.82
2018-07-09T19:18:20.604Z,17.81
2018-07-09T19:21:31.876Z,17.76
2018-07-09T19:23:59.751Z,17.73
2018-07-09T19:26:26.983Z,17.71
2018-07-09T19:28:54.359Z,17.71
2018-07-09T19:31:21.621Z,17.71
2018-07-09T19:33:48.965Z,17.67
2018-07-09T19:36:16.290Z,17.62
2018-07-09T19:38:43.627Z,17.57
2018-07-09T19:41:11.232Z,17.55
2018-07-09T19:43:38.847Z,17.55
2018-07-09T19:46:06.288Z,17.57
2018-07-09T19:48:33.565Z,17.50
2018-07-09T19:51:00.928Z,17.52
2018-07-09T19:53:28.412Z,17.54
2018-07-09T19:55:55.735Z,17.51
2018-07-09T19:58:23.123Z,17.51
2018-07-09T20:00:50.577Z,17.48
2018-07-09T20:03:17.985Z,17.46
2018-07-09T20:05:45.271Z,17.45
2018-07-09T20:08:12.684Z,17.41
2018-07-09T20:10:45.217Z,17.40
2018-07-09T20:13:17.655Z,17.36
2018-07-09T20:15:50.269Z,17.31
2018-07-09T20:18:17.623Z,17.32
2018-07-09T20:20:45.085Z,17.31
2018-07-09T20:23:12.370Z,17.27
2018-07-09T20:25:39.691Z,17.25
2018-07-09T20:28:06.987Z,17.24
2018-07-09T20:30:34.392Z,17.20
2018-07-09T20:33:01.672Z,17.14
2018-07-09T20:35:29.099Z,17.09
2018-07-09T20:37:56.457Z,17.05
2018-07-09T20:40:23.735Z,17.08
2018-07-09T20:42:51.059Z,17.03
2018-07-09T20:45:18.371Z,16.95
2018-07-09T20:47:45.740Z,16.95
2018-07-09T20:50:13.022Z,16.95
2018-07-09T20:52:40.372Z,16.98
2018-07-09T20:55:07.644Z,16.95
2018-07-09T20:57:34.979Z,16.95
2018-07-09T21:00:02.333Z,16.90
2018-07-09T21:02:29.605Z,16.88
2018-07-09T21:04:56.941Z,16.87
2018-07-09T21:07:24.235Z,16.89
2018-07-09T21:09:51.647Z,16.91
2018-07-09T21:12:18.916Z,16.87
2018-07-09T21:14:46.253Z,16.84
2018-07-09T21:17:13.612Z,16.82
2018-07-09T21:19:40.947Z,16.81
2018-07-09T21:22:08.350Z,16.80
2018-07-09T21:24:35.670Z,16.81
2018-07-09T21:27:02.943Z,16.79
2018-07-09T21:29:30.195Z,16.76
2018-07-09T21:31:57.468Z,16.71
2018-07-09T21:34:24.880Z,16.70
2018-07-09T21:36:52.234Z,16.69
2018-07-09T21:39:19.531Z,16.66
2018-07-09T21:41:46.943Z,16.64
2018-07-09T21:44:14.218Z,16.63
2018-07-09T21:46:41.549Z,16.58
2018-07-09T21:49:08.816Z,16.55
2018-07-09T21:51:36.257Z,16.53
2018-07-09T21:54:03.614Z,16.52
2018-07-09T21:56:30.908Z,16.47
2018-07-09T21:58:58.323Z,16.47
2018-07-09T22:01:25.674Z,16.45
2018-07-09T22:03:52.938Z,16.40
2018-07-09T22:06:20.278Z,16.40
2018-07-09T22:08:47.634Z,16.38
2018-07-09T22:11:14.986Z,16.36
2018-07-09T22:13:42.278Z,16.34
2018-07-09T22:16:09.697Z,16.30
2018-07-09T22:18:36.968Z,16.31
2018-07-09T22:21:04.233Z,16.30
2018-07-09T22:23:31.655Z,16.27
2018-07-09T22:25:59.009Z,16.25
2018-07-09T22:28:26.315Z,16.26
2018-07-09T22:30:54.948Z,16.24
2018-07-09T22:33:23.498Z,16.26
2018-07-09T22:35:52.064Z,16.25
2018-07-09T22:38:20.695Z,16.26
2018-07-09T22:40:49.381Z,16.23
2018-07-09T22:43:29.083Z,16.23
2018-07-09T22:45:57.708Z,16.23
2018-07-09T22:48:26.207Z,16.23
2018-07-09T22:50:55.474Z,16.21
2018-07-09T22:53:23.913Z,16.20
2018-07-09T22:56:07.129Z,16.20
2018-07-09T22:58:36.126Z,16.17
2018-07-09T23:01:05.488Z,16.15
2018-07-09T23:03:34.888Z,16.12
2018-07-09T23:06:03.678Z,16.11
2018-07-09T23:08:32.459Z,16.08
2018-07-09T23:12:14.979Z,16.06
2018-07-09T23:16:51.090Z,16.03
2018-07-09T23:22:14.695Z,15.99
2018-07-09T23:24:42.047Z,15.97
2018-07-09T23:27:09.447Z,15.94
2018-07-09T23:29:36.723Z,15.94
2018-07-09T23:32:03.991Z,15.91
2018-07-09T23:34:31.343Z,15.95
2018-07-09T23:36:58.761Z,15.94
2018-07-09T23:39:26.059Z,15.93
2018-07-09T23:41:53.417Z,15.91
2018-07-09T23:44:20.720Z,15.89
2018-07-09T23:46:48.031Z,15.87
2018-07-09T23:49:15.376Z,15.85
2018-07-09T23:51:42.681Z,15.84
2018-07-09T23:54:09.983Z,15.85
2018-07-09T23:57:13.887Z,15.83
2018-07-09T23:59:53.691Z,15.79
